Terminal Aerodrome Forecast
Issued by NWS Amarillo, TX

Home | Current Version | Previous Version | Text Only | Print | Product List | Glossary On
Versions: 1 2 3 4 5 6 7 8 9 10 11 12 13 14 15 16 17 18 19 20 21 22 23
000
FTUS44 KAMA 241126
TAFDHT
TAF
KDHT 241126Z 2412/2512 19006KT 5SM BR OVC005
      TEMPO 2412/2415 6SM BR SCT005 OVC010
     FM241500 19011KT P6SM SCT015
     FM241800 17011KT P6SM SCT040 PROB30 2421/2503 P6SM -TSRA
      BKN040CB=

USA.gov is the U.S. government's official web portal to all federal, state and local government web resources and services.